Portada
METAR-TAF:

METAR-TAF

Aeroports :

Gwadar, Pakistan

latitud: 25-13-59N, longitud: 062-19-46E, altitud: 29 m

METAR: manca

Hora: 13:25 (08:25 UTC)

Pronòstic

L'informe es va fer fa 4 hores i 55 minuts, a les 03:30 UTC
Pronòstic vàlid del 06 a les 06 UTC al 07 a les 06 UTC
Vent 8 kt del Sud-Est amb ràfegues de 18 kt
Visibilitat: 4000 m
Escasses núvols a una alçada de 2500 ft
calitja
A partir de les 06 a les 1900 UTC
Vent 10 kt del Sud
Visibilitat: 3000 m
Núvols disperses a una alçada de 2500 ft
calitja
Temporalment
l' 07 a les 00 UTC al 07 a les 04 UTC
Vent 2 kt amb direcció variable
Visibilitat: 2000 m
Núvols disperses a una alçada de 2000 ft
calitja

TAF: OPGD 060330Z 0606/0706 14008G18KT 4000 HZ FEW025 FM061900 18010KT 3000 HZ SCT025 TEMPO 0700/0704 VRB02KT 2000 HZ SCT020

Observacions i pronòstics meteorològics de més de 4000 aeroports (METAR i TAF).

Les estacions disponibles són els punts grocs i vermells al mapa.

Posi el ratolí al punt desitjat per veure el nom de l'estació.

Feu clic per veure les observacions i els pronòstics meteorològics.

Per canviar el mapa: feu clic els botons verds amb una creu de color negre per apropar; al botó verd amb un guió per allunyar la imatge; o en les fletxes verdes per a mapes adjacents.


METAR-TAF: